createdAt,value
2023-02-15T00:01:07.155Z,12.67
2023-02-15T00:03:08.941Z,16.33
2023-02-15T00:05:10.470Z,16.00
2023-02-15T00:07:13.151Z,20.00
2023-02-15T00:09:14.716Z,19.00
2023-02-15T00:11:18.796Z,17.00
2023-02-15T00:13:20.638Z,16.33
2023-02-15T00:15:23.742Z,19.00
2023-02-15T00:17:28.642Z,22.67
2023-02-15T00:19:30.204Z,17.00
2023-02-15T00:21:33.353Z,20.25
2023-02-15T00:23:35.447Z,19.33
2023-02-15T00:25:37.303Z,16.33
2023-02-15T00:27:38.860Z,17.00
2023-02-15T00:29:40.400Z,18.00
2023-02-15T00:31:43.536Z,21.33
2023-02-15T00:33:45.099Z,15.00
2023-02-15T00:35:47.153Z,15.33
2023-02-15T00:37:48.708Z,22.33
2023-02-15T00:39:50.293Z,19.67
2023-02-15T00:41:52.149Z,17.67
2023-02-15T00:43:54.069Z,16.00
2023-02-15T00:45:56.258Z,15.00
2023-02-15T00:47:59.258Z,12.67
2023-02-15T00:50:00.821Z,16.33
2023-02-15T00:52:02.667Z,17.67
2023-02-15T00:54:04.486Z,16.33
2023-02-15T00:56:06.165Z,14.00
2023-02-15T00:58:08.846Z,16.33
2023-02-15T01:00:11.832Z,16.00
2023-02-15T01:02:13.478Z,16.00
2023-02-15T01:04:16.519Z,18.00
2023-02-15T01:06:18.750Z,14.33
2023-02-15T01:08:20.382Z,16.67
2023-02-15T01:10:22.309Z,15.67
2023-02-15T01:12:24.240Z,16.33
2023-02-15T01:14:25.867Z,19.00
2023-02-15T01:16:29.656Z,15.33
2023-02-15T01:18:32.573Z,16.50
2023-02-15T01:20:38.393Z,12.67
2023-02-15T01:22:39.951Z,10.67
2023-02-15T01:24:41.507Z,13.67
2023-02-15T01:26:43.126Z,23.00
2023-02-15T01:28:45.144Z,16.50
2023-02-15T01:30:46.967Z,18.00
2023-02-15T01:32:48.869Z,21.25
2023-02-15T01:34:50.470Z,18.75
2023-02-15T01:36:53.505Z,15.33
2023-02-15T01:38:55.084Z,16.00
2023-02-15T01:40:59.235Z,15.67
2023-02-15T01:43:01.329Z,13.50
2023-02-15T01:45:05.382Z,17.00
2023-02-15T01:47:11.046Z,14.50
2023-02-15T01:49:16.370Z,19.75
2023-02-15T01:51:25.264Z,17.50
2023-02-15T01:53:35.047Z,11.67
2023-02-15T01:55:41.300Z,16.25
2023-02-15T01:57:44.851Z,19.50
2023-02-15T01:59:51.909Z,17.67
2023-02-15T02:01:58.779Z,19.25
2023-02-15T02:04:08.275Z,21.75
2023-02-15T02:06:10.490Z,19.50
2023-02-15T02:08:12.277Z,21.00
2023-02-15T02:10:17.596Z,22.75
2023-02-15T02:12:21.859Z,20.00
2023-02-15T02:14:25.155Z,11.25
2023-02-15T02:16:35.576Z,18.50
2023-02-15T02:18:47.037Z,20.50
2023-02-15T02:21:27.011Z,17.75
2023-02-15T02:23:42.304Z,19.25
2023-02-15T02:26:25.508Z,17.50
2023-02-15T02:28:58.945Z,21.75
2023-02-15T02:31:25.674Z,18.75
2023-02-15T02:33:53.760Z,17.25
2023-02-15T02:36:04.619Z,19.75
2023-02-15T02:38:13.033Z,24.25
2023-02-15T02:40:23.833Z,25.50
2023-02-15T02:42:34.814Z,15.75
2023-02-15T02:44:43.128Z,26.00
2023-02-15T02:46:51.904Z,19.00
2023-02-15T02:48:56.126Z,17.25
2023-02-15T02:50:57.735Z,23.75
2023-02-15T02:53:00.271Z,17.25
2023-02-15T02:55:04.041Z,15.50
2023-02-15T02:57:09.373Z,22.75
2023-02-15T02:59:17.963Z,23.50
2023-02-15T03:01:25.733Z,23.50
2023-02-15T03:03:33.636Z,18.50
2023-02-15T03:05:42.534Z,26.00
2023-02-15T03:07:50.840Z,15.75
2023-02-15T03:09:54.141Z,19.75
2023-02-15T03:11:55.889Z,15.50
2023-02-15T03:13:58.713Z,26.00
2023-02-15T03:16:03.032Z,20.25
2023-02-15T03:18:05.761Z,26.25
2023-02-15T03:20:09.533Z,21.50
2023-02-15T03:22:19.602Z,18.00
2023-02-15T03:24:26.257Z,20.75
2023-02-15T03:26:31.336Z,24.00
2023-02-15T03:28:37.367Z,19.00
2023-02-15T03:30:43.826Z,21.75
2023-02-15T03:32:47.410Z,25.25
2023-02-15T03:34:49.280Z,19.00
2023-02-15T03:36:56.282Z,29.00
2023-02-15T03:39:08.856Z,28.00
2023-02-15T03:41:12.425Z,22.75
2023-02-15T03:43:20.918Z,23.00
2023-02-15T03:45:28.585Z,20.75
2023-02-15T03:47:35.765Z,16.25
2023-02-15T03:49:43.815Z,20.25
2023-02-15T03:51:49.501Z,26.50
2023-02-15T03:53:53.661Z,24.00
2023-02-15T03:55:56.813Z,24.50
2023-02-15T03:57:58.458Z,26.50
2023-02-15T04:00:01.560Z,24.00
2023-02-15T04:02:17.859Z,25.00
2023-02-15T04:04:25.580Z,25.50
2023-02-15T04:06:27.618Z,24.25
2023-02-15T04:08:29.323Z,22.00
2023-02-15T04:10:30.939Z,14.50
2023-02-15T04:12:34.220Z,23.50
2023-02-15T04:14:36.297Z,20.75
2023-02-15T04:16:37.824Z,22.25
2023-02-15T04:18:41.668Z,23.00
2023-02-15T04:20:44.934Z,23.50
2023-02-15T04:22:46.512Z,15.25
2023-02-15T04:24:48.082Z,21.50
2023-02-15T04:26:49.657Z,21.75
2023-02-15T04:28:52.582Z,26.50
2023-02-15T04:30:54.135Z,22.75
2023-02-15T04:32:56.264Z,21.75
2023-02-15T04:34:57.953Z,27.75
2023-02-15T04:36:59.570Z,22.75
2023-02-15T04:39:01.788Z,19.00
2023-02-15T04:41:03.347Z,23.50
2023-02-15T04:43:05.020Z,16.50
2023-02-15T04:45:08.972Z,22.75
2023-02-15T04:47:11.124Z,16.50
2023-02-15T04:49:12.982Z,22.75
2023-02-15T04:51:14.687Z,14.00
2023-02-15T04:53:16.286Z,21.50
2023-02-15T04:55:17.845Z,20.00
2023-02-15T04:57:19.645Z,23.50
2023-02-15T04:59:21.994Z,22.00
2023-02-15T05:01:24.959Z,20.50
2023-02-15T05:03:26.652Z,19.25
2023-02-15T05:05:28.564Z,23.50
2023-02-15T05:07:30.375Z,21.75
2023-02-15T05:09:31.954Z,23.50
2023-02-15T05:11:33.516Z,21.50
2023-02-15T05:13:35.053Z,17.00
2023-02-15T05:15:36.809Z,19.75
2023-02-15T05:17:40.461Z,18.50
2023-02-15T05:19:42.041Z,25.50
2023-02-15T05:21:43.749Z,24.25
2023-02-15T05:23:45.664Z,21.50
2023-02-15T05:25:48.992Z,17.75
2023-02-15T05:27:50.705Z,20.50
2023-02-15T05:29:52.632Z,20.50
2023-02-15T05:31:54.718Z,17.25
2023-02-15T05:33:57.776Z,16.75
2023-02-15T05:36:00.354Z,16.50
2023-02-15T05:38:03.688Z,19.75
2023-02-15T05:40:06.355Z,16.00
2023-02-15T05:42:07.915Z,21.50
2023-02-15T05:44:09.743Z,19.50
2023-02-15T05:46:12.819Z,22.50
2023-02-15T05:48:14.837Z,18.75
2023-02-15T05:50:18.223Z,18.75
2023-02-15T05:52:19.847Z,21.50
2023-02-15T05:54:21.394Z,18.25
2023-02-15T05:56:23.017Z,18.25
2023-02-15T05:58:24.704Z,21.50
2023-02-15T06:00:26.359Z,24.75
2023-02-15T06:02:27.966Z,22.50
2023-02-15T06:04:30.024Z,13.50
2023-02-15T06:06:33.570Z,19.25
2023-02-15T06:08:36.877Z,25.75
2023-02-15T06:10:38.438Z,17.75
2023-02-15T06:12:40.289Z,13.00
2023-02-15T06:14:41.938Z,18.25
2023-02-15T06:16:43.496Z,20.50
2023-02-15T06:18:45.081Z,18.00
2023-02-15T06:20:47.070Z,22.50
2023-02-15T06:22:50.287Z,19.50
2023-02-15T06:24:51.837Z,16.00
2023-02-15T06:26:53.442Z,13.75
2023-02-15T06:28:54.996Z,18.50
2023-02-15T06:30:58.169Z,14.50
2023-02-15T06:32:59.930Z,12.75
2023-02-15T06:35:01.679Z,18.00
2023-02-15T06:37:03.239Z,16.25
2023-02-15T06:39:06.327Z,15.25
2023-02-15T06:41:07.998Z,12.75
2023-02-15T06:43:09.543Z,14.50
2023-02-15T06:45:12.234Z,13.25
2023-02-15T06:47:14.072Z,14.50
2023-02-15T06:49:15.645Z,16.00
2023-02-15T06:51:17.202Z,13.25
2023-02-15T06:53:19.055Z,15.25
2023-02-15T06:55:22.196Z,13.75
2023-02-15T06:57:23.743Z,15.50
2023-02-15T06:59:26.129Z,12.25
2023-02-15T07:01:27.794Z,14.75
2023-02-15T07:03:29.682Z,14.00
2023-02-15T07:05:34.859Z,8.75
2023-02-15T07:07:36.476Z,14.75
2023-02-15T07:09:38.282Z,12.25
2023-02-15T07:11:41.205Z,15.75
2023-02-15T07:13:42.755Z,16.75
2023-02-15T07:15:44.479Z,15.00
2023-02-15T07:17:46.024Z,11.25
2023-02-15T07:19:47.604Z,14.75
2023-02-15T07:21:49.298Z,15.75
2023-02-15T07:23:51.245Z,11.75
2023-02-15T07:25:57.804Z,15.00
2023-02-15T07:28:03.108Z,17.00
2023-02-15T07:30:06.366Z,17.50
2023-02-15T07:32:08.291Z,15.00
2023-02-15T07:34:10.096Z,19.50
2023-02-15T07:36:12.008Z,14.75
2023-02-15T07:38:13.890Z,14.00
2023-02-15T07:40:17.666Z,19.00
2023-02-15T07:42:19.552Z,16.75
2023-02-15T07:44:22.508Z,18.25
2023-02-15T07:46:24.220Z,19.25
2023-02-15T07:48:25.907Z,19.00
2023-02-15T07:50:27.673Z,20.25
2023-02-15T07:52:29.214Z,19.75
2023-02-15T07:54:31.474Z,21.75
2023-02-15T07:56:34.107Z,20.00
2023-02-15T07:58:36.525Z,16.75
2023-02-15T08:00:39.739Z,24.00
2023-02-15T08:02:41.719Z,25.00
2023-02-15T08:04:43.425Z,21.50
2023-02-15T08:06:44.934Z,20.50
2023-02-15T08:08:46.544Z,26.25
2023-02-15T08:10:48.373Z,21.25
2023-02-15T08:12:49.960Z,21.00
2023-02-15T08:14:51.582Z,24.75
2023-02-15T08:16:56.075Z,23.50
2023-02-15T08:18:59.165Z,22.00
2023-02-15T08:21:01.504Z,24.00
2023-02-15T08:23:03.097Z,29.00
2023-02-15T08:25:05.209Z,24.25
2023-02-15T08:27:08.635Z,14.50
2023-02-15T08:29:10.685Z,23.00
2023-02-15T08:31:13.967Z,24.75
2023-02-15T08:33:17.287Z,25.50
2023-02-15T08:35:18.939Z,30.00
2023-02-15T08:37:20.662Z,25.50
2023-02-15T08:39:22.447Z,19.50
2023-02-15T08:41:26.451Z,4.75
2023-02-15T08:43:30.263Z,25.25
2023-02-15T08:45:31.878Z,19.75
2023-02-15T08:47:33.470Z,23.25
2023-02-15T08:49:36.543Z,28.50
2023-02-15T08:51:39.364Z,23.25
2023-02-15T08:53:42.298Z,21.00
2023-02-15T08:55:44.078Z,25.25
2023-02-15T08:57:48.741Z,23.75
2023-02-15T08:59:50.412Z,24.00
2023-02-15T09:01:53.037Z,25.00
2023-02-15T09:03:57.590Z,23.00
2023-02-15T09:06:02.397Z,24.00
2023-02-15T09:08:04.271Z,25.00
2023-02-15T09:10:07.803Z,27.00
2023-02-15T09:12:09.641Z,20.50
2023-02-15T09:14:14.262Z,28.75
2023-02-15T09:16:15.942Z,12.67
2023-02-15T09:18:17.582Z,25.25
2023-02-15T09:20:19.258Z,28.00
2023-02-15T09:22:22.235Z,29.25
2023-02-15T09:24:23.794Z,22.50
2023-02-15T09:26:25.788Z,22.00
2023-02-15T09:28:27.401Z,31.50
2023-02-15T09:30:29.293Z,27.50
2023-02-15T09:32:31.369Z,26.50
2023-02-15T09:34:35.033Z,31.00
2023-02-15T09:36:39.601Z,31.50
2023-02-15T09:38:42.761Z,28.00
2023-02-15T09:40:56.550Z,18.33
2023-02-15T09:43:13.701Z,27.00
2023-02-15T09:45:27.370Z,30.67
2023-02-15T09:47:55.976Z,27.67
2023-02-15T09:50:07.217Z,29.33
2023-02-15T09:52:28.815Z,22.25
2023-02-15T09:54:50.069Z,24.00
2023-02-15T09:56:56.650Z,18.00
2023-02-15T09:59:10.087Z,28.33
2023-02-15T10:01:20.142Z,24.00
2023-02-15T10:03:35.903Z,30.67
2023-02-15T10:05:49.122Z,30.33
2023-02-15T10:08:14.397Z,29.00
2023-02-15T10:10:26.412Z,29.00
2023-02-15T10:12:42.436Z,29.33
2023-02-15T10:15:01.517Z,22.67
2023-02-15T10:17:13.740Z,32.00
2023-02-15T10:19:26.237Z,32.00
2023-02-15T10:21:44.900Z,29.00
2023-02-15T10:24:05.980Z,29.33
2023-02-15T10:26:17.601Z,32.33
2023-02-15T10:28:21.798Z,35.67
2023-02-15T10:30:34.516Z,31.33
2023-02-15T10:32:43.268Z,32.00
2023-02-15T10:34:51.759Z,18.33
2023-02-15T10:37:11.722Z,32.00
2023-02-15T10:39:24.299Z,29.67
2023-02-15T10:41:39.044Z,35.00
2023-02-15T10:44:04.063Z,38.00
2023-02-15T10:46:19.152Z,33.33
2023-02-15T10:48:40.785Z,39.33
2023-02-15T10:50:50.369Z,38.00
2023-02-15T10:53:15.146Z,34.67
2023-02-15T10:55:24.619Z,38.67
2023-02-15T10:57:40.673Z,33.00
2023-02-15T10:59:57.860Z,26.00
2023-02-15T11:02:05.582Z,27.00
2023-02-15T11:04:33.532Z,34.00
2023-02-15T11:06:39.021Z,31.00
2023-02-15T11:08:45.432Z,36.00
2023-02-15T11:10:52.729Z,39.00
2023-02-15T11:12:58.142Z,31.00
2023-02-15T11:15:05.173Z,42.00
2023-02-15T11:17:11.439Z,37.33
2023-02-15T11:19:18.424Z,38.67
2023-02-15T11:21:23.745Z,38.33
2023-02-15T11:23:27.558Z,31.67
2023-02-15T11:25:33.007Z,38.33
2023-02-15T11:27:35.183Z,35.67
2023-02-15T11:29:42.303Z,38.33
2023-02-15T11:31:46.421Z,35.33
2023-02-15T11:33:52.871Z,36.67
2023-02-15T11:36:00.419Z,40.00
2023-02-15T11:38:07.320Z,35.67
2023-02-15T11:40:21.580Z,38.67
2023-02-15T11:42:26.282Z,42.33
2023-02-15T11:44:34.420Z,36.33
2023-02-15T11:46:38.330Z,38.00
2023-02-15T11:48:40.601Z,37.67
2023-02-15T11:50:43.692Z,31.33
2023-02-15T11:52:45.700Z,34.00
2023-02-15T11:54:52.382Z,36.33
2023-02-15T11:56:55.580Z,34.33
2023-02-15T11:59:00.801Z,31.67
2023-02-15T12:01:10.815Z,37.00
2023-02-15T12:03:20.942Z,32.00
2023-02-15T12:05:26.046Z,42.33
2023-02-15T12:07:32.801Z,40.33
2023-02-15T12:09:39.778Z,33.00
2023-02-15T12:11:42.361Z,38.00
2023-02-15T12:13:58.425Z,38.00
2023-02-15T12:16:08.350Z,40.33
2023-02-15T12:18:22.326Z,42.67
2023-02-15T12:20:30.416Z,34.33
2023-02-15T12:22:35.463Z,42.33
2023-02-15T12:24:44.686Z,37.67
2023-02-15T12:26:58.465Z,35.67
2023-02-15T12:29:03.223Z,39.00
2023-02-15T12:31:11.220Z,37.67
2023-02-15T12:33:18.108Z,39.00
2023-02-15T12:35:29.912Z,40.33
2023-02-15T12:37:32.796Z,39.00
2023-02-15T12:39:34.373Z,40.33
2023-02-15T12:41:38.421Z,34.33
2023-02-15T12:43:40.202Z,38.67
2023-02-15T12:45:42.046Z,40.33
2023-02-15T12:47:43.666Z,38.67
2023-02-15T12:50:04.600Z,40.67
2023-02-15T12:52:26.137Z,42.67
2023-02-15T12:54:39.999Z,39.00
2023-02-15T12:56:41.544Z,43.33
2023-02-15T12:58:43.682Z,34.33
2023-02-15T13:00:45.719Z,40.67
2023-02-15T13:02:49.628Z,37.67
2023-02-15T13:04:52.355Z,41.33
2023-02-15T13:06:57.229Z,37.33
2023-02-15T13:09:09.350Z,41.67
2023-02-15T13:11:12.855Z,40.67
2023-02-15T13:13:21.236Z,36.33
2023-02-15T13:15:29.473Z,34.33
2023-02-15T13:17:33.605Z,40.33
2023-02-15T13:19:41.083Z,40.00
2023-02-15T13:21:45.843Z,44.67
2023-02-15T13:23:51.933Z,35.67
2023-02-15T13:25:57.588Z,36.67
2023-02-15T13:28:03.726Z,30.67
2023-02-15T13:30:17.885Z,40.67
2023-02-15T13:32:29.422Z,40.00
2023-02-15T13:34:34.603Z,43.33
2023-02-15T13:36:45.508Z,35.67
2023-02-15T13:38:54.576Z,39.33
2023-02-15T13:41:04.697Z,40.67
2023-02-15T13:43:21.826Z,40.00
2023-02-15T13:45:41.272Z,28.00
2023-02-15T13:47:50.442Z,33.33
2023-02-15T13:50:11.822Z,38.00
2023-02-15T13:52:20.917Z,35.67
2023-02-15T13:54:37.913Z,40.00
2023-02-15T13:56:53.046Z,39.00
2023-02-15T13:59:16.646Z,39.00
2023-02-15T14:01:27.605Z,40.33
2023-02-15T14:04:00.225Z,38.00
2023-02-15T14:06:16.235Z,39.33
2023-02-15T14:08:27.359Z,40.00
2023-02-15T14:10:39.835Z,38.00
2023-02-15T14:13:03.826Z,36.67
2023-02-15T14:15:33.042Z,36.33
2023-02-15T14:17:48.736Z,32.33
2023-02-15T14:19:55.250Z,40.00
2023-02-15T14:22:01.606Z,38.00
2023-02-15T14:24:18.427Z,40.67
2023-02-15T14:26:26.745Z,37.33
2023-02-15T14:28:38.932Z,39.67
2023-02-15T14:30:45.507Z,37.67
2023-02-15T14:32:51.676Z,36.67
2023-02-15T14:34:55.764Z,41.67
2023-02-15T14:36:58.711Z,41.33
2023-02-15T14:39:20.144Z,37.67
2023-02-15T14:41:28.754Z,33.67
2023-02-15T14:43:43.406Z,42.67
2023-02-15T14:45:50.764Z,34.00
2023-02-15T14:48:03.794Z,40.00
2023-02-15T14:50:54.025Z,40.33
2023-02-15T14:53:18.399Z,39.00
2023-02-15T14:55:36.847Z,34.00
2023-02-15T14:57:38.521Z,38.33
2023-02-15T14:59:46.297Z,20.00
2023-02-15T15:01:58.402Z,40.00
2023-02-15T15:04:04.684Z,39.33
2023-02-15T15:06:07.036Z,38.67
2023-02-15T15:08:26.885Z,35.00
2023-02-15T15:10:39.381Z,36.67
2023-02-15T15:12:41.469Z,37.00
2023-02-15T15:14:45.343Z,37.67
2023-02-15T15:16:50.433Z,30.00
2023-02-15T15:18:52.677Z,35.33
2023-02-15T15:20:54.433Z,42.33
2023-02-15T15:23:40.836Z,36.67
2023-02-15T15:25:44.586Z,43.67
2023-02-15T15:27:50.365Z,38.67
2023-02-15T15:29:53.680Z,32.00
2023-02-15T15:32:00.723Z,33.67
2023-02-15T15:34:19.793Z,36.33
2023-02-15T15:37:02.286Z,34.00
2023-02-15T15:39:21.878Z,36.33
2023-02-15T15:41:39.452Z,35.00
2023-02-15T15:44:08.087Z,42.33
2023-02-15T15:46:34.127Z,42.33
2023-02-15T15:48:37.726Z,41.33
2023-02-15T15:50:41.764Z,38.67
2023-02-15T15:52:48.601Z,31.33
2023-02-15T15:54:55.907Z,29.67
2023-02-15T15:57:03.088Z,38.67
2023-02-15T15:59:08.481Z,35.33
2023-02-15T16:01:12.266Z,37.00
2023-02-15T16:03:17.681Z,31.33
2023-02-15T16:05:19.576Z,33.00
2023-02-15T16:07:27.575Z,34.67
2023-02-15T16:09:29.326Z,34.33
2023-02-15T16:11:32.315Z,37.00
2023-02-15T16:13:34.782Z,39.00
2023-02-15T16:15:44.641Z,41.00
2023-02-15T16:17:50.623Z,43.00
2023-02-15T16:19:57.266Z,34.67
2023-02-15T16:22:01.509Z,39.00
2023-02-15T16:24:23.223Z,35.00
2023-02-15T16:26:49.998Z,31.33
2023-02-15T16:28:52.560Z,33.67
2023-02-15T16:31:07.568Z,42.00
2023-02-15T16:33:11.436Z,33.67
2023-02-15T16:35:17.572Z,41.67
2023-02-15T16:37:20.860Z,38.33
2023-02-15T16:39:22.375Z,36.33
2023-02-15T16:41:27.405Z,39.33
2023-02-15T16:43:32.854Z,33.00
2023-02-15T16:45:35.312Z,35.33
2023-02-15T16:47:42.466Z,33.67
2023-02-15T16:49:47.461Z,32.67
2023-02-15T16:51:58.710Z,38.33
2023-02-15T16:54:06.784Z,41.33
2023-02-15T16:56:08.602Z,36.67
2023-02-15T16:58:17.347Z,42.00
2023-02-15T17:00:21.145Z,36.33
2023-02-15T17:02:49.392Z,36.33
2023-02-15T17:05:06.570Z,33.67
2023-02-15T17:07:18.665Z,39.33
2023-02-15T17:09:23.776Z,38.67
2023-02-15T17:11:35.578Z,37.00
2023-02-15T17:13:37.196Z,31.33
2023-02-15T17:15:41.014Z,41.00
2023-02-15T17:17:42.702Z,36.67
2023-02-15T17:19:50.254Z,38.67
2023-02-15T17:21:54.999Z,36.67
2023-02-15T17:24:01.472Z,39.00
2023-02-15T17:26:14.023Z,36.00
2023-02-15T17:28:19.247Z,41.67
2023-02-15T17:30:29.401Z,32.33
2023-02-15T17:32:32.930Z,45.25
2023-02-15T17:35:01.115Z,46.00
2023-02-15T17:37:02.700Z,42.25
2023-02-15T17:39:19.248Z,49.25
2023-02-15T17:41:21.120Z,55.75
2023-02-15T17:43:22.915Z,51.00
2023-02-15T17:45:29.452Z,51.50
2023-02-15T17:47:31.103Z,47.75
2023-02-15T17:49:33.213Z,45.75
2023-02-15T17:51:36.545Z,47.75
2023-02-15T17:53:38.658Z,50.00
2023-02-15T17:55:41.632Z,44.25
2023-02-15T17:57:43.255Z,41.67
2023-02-15T17:59:44.926Z,39.00
2023-02-15T18:01:48.899Z,44.25
2023-02-15T18:03:52.024Z,39.00
2023-02-15T18:05:54.026Z,40.50
2023-02-15T18:07:55.906Z,40.33
2023-02-15T18:09:57.499Z,40.50
2023-02-15T18:12:01.062Z,41.67
2023-02-15T18:14:02.896Z,37.00
2023-02-15T18:16:04.834Z,45.00
2023-02-15T18:18:09.529Z,46.25
2023-02-15T18:20:20.640Z,31.75
2023-02-15T18:22:22.430Z,42.33
2023-02-15T18:24:26.461Z,42.00
2023-02-15T18:26:28.981Z,44.00
2023-02-15T18:28:32.132Z,46.33
2023-02-15T18:30:34.281Z,42.33
2023-02-15T18:32:38.257Z,37.33
2023-02-15T18:34:42.855Z,42.25
2023-02-15T18:36:45.307Z,38.67
2023-02-15T18:38:47.375Z,43.33
2023-02-15T18:40:48.966Z,38.00
2023-02-15T18:42:50.685Z,39.67
2023-02-15T18:44:56.673Z,37.00
2023-02-15T18:46:58.520Z,41.33
2023-02-15T18:49:00.140Z,39.67
2023-02-15T18:51:02.206Z,35.33
2023-02-15T18:53:06.210Z,33.67
2023-02-15T18:55:17.755Z,35.00
2023-02-15T18:57:19.846Z,33.67
2023-02-15T18:59:22.907Z,27.33
2023-02-15T19:01:26.285Z,28.33
2023-02-15T19:03:27.997Z,31.00
2023-02-15T19:05:30.534Z,27.00
2023-02-15T19:07:34.096Z,23.33
2023-02-15T19:09:35.718Z,30.00
2023-02-15T19:11:37.681Z,32.00
2023-02-15T19:13:39.219Z,26.33
2023-02-15T19:15:41.497Z,30.67
2023-02-15T19:17:44.884Z,38.67
2023-02-15T19:19:47.139Z,34.00
2023-02-15T19:21:50.163Z,29.67
2023-02-15T19:23:55.380Z,38.33
2023-02-15T19:25:57.071Z,31.67
2023-02-15T19:27:59.689Z,28.00
2023-02-15T19:30:03.945Z,26.67
2023-02-15T19:32:05.720Z,29.00
2023-02-15T19:34:14.827Z,29.67
2023-02-15T19:36:18.104Z,23.33
2023-02-15T19:38:23.641Z,26.00
2023-02-15T19:40:27.418Z,30.00
2023-02-15T19:42:29.704Z,28.67
2023-02-15T19:44:31.320Z,34.00
2023-02-15T19:46:33.013Z,29.33
2023-02-15T19:48:34.720Z,28.67
2023-02-15T19:50:37.806Z,25.67
2023-02-15T19:52:40.430Z,32.33
2023-02-15T19:54:44.603Z,33.33
2023-02-15T19:56:47.526Z,39.33
2023-02-15T19:58:50.683Z,27.00
2023-02-15T20:00:52.444Z,33.00
2023-02-15T20:02:55.106Z,38.33
2023-02-15T20:04:57.046Z,35.75
2023-02-15T20:07:02.981Z,35.33
2023-02-15T20:09:05.365Z,30.00
2023-02-15T20:11:09.333Z,28.33
2023-02-15T20:13:14.416Z,33.67
2023-02-15T20:15:21.790Z,38.00
2023-02-15T20:17:23.575Z,30.25
2023-02-15T20:19:25.227Z,30.33
2023-02-15T20:21:26.891Z,34.00
2023-02-15T20:23:33.825Z,20.00
2023-02-15T20:25:35.585Z,33.00
2023-02-15T20:27:37.226Z,37.33
2023-02-15T20:29:39.714Z,35.33
2023-02-15T20:31:42.565Z,32.00
2023-02-15T20:33:44.337Z,30.33
2023-02-15T20:35:47.011Z,35.00
2023-02-15T20:37:50.700Z,32.33
2023-02-15T20:39:53.709Z,31.33
2023-02-15T20:41:55.639Z,30.00
2023-02-15T20:43:57.235Z,32.33
2023-02-15T20:45:59.060Z,42.25
2023-02-15T20:48:00.814Z,38.00
2023-02-15T20:50:02.369Z,19.67
2023-02-15T20:52:14.674Z,32.00
2023-02-15T20:54:18.293Z,33.00
2023-02-15T20:56:24.106Z,34.33
2023-02-15T20:58:27.933Z,38.00
2023-02-15T21:00:32.000Z,36.67
2023-02-15T21:02:33.756Z,31.00
2023-02-15T21:04:35.385Z,31.67
2023-02-15T21:06:37.244Z,36.33
2023-02-15T21:08:38.823Z,37.00
2023-02-15T21:10:41.077Z,30.33
2023-02-15T21:12:45.190Z,23.67
2023-02-15T21:14:47.263Z,30.67
2023-02-15T21:16:50.481Z,32.00
2023-02-15T21:18:52.098Z,33.33
2023-02-15T21:20:57.036Z,29.33
2023-02-15T21:23:02.874Z,33.33
2023-02-15T21:25:05.241Z,24.00
2023-02-15T21:27:07.527Z,30.33
2023-02-15T21:29:15.924Z,29.33
2023-02-15T21:31:19.717Z,22.00
2023-02-15T21:33:21.662Z,29.33
2023-02-15T21:35:23.345Z,26.33
2023-02-15T21:37:32.075Z,34.33
2023-02-15T21:39:36.055Z,28.00
2023-02-15T21:41:37.749Z,30.00
2023-02-15T21:43:39.560Z,35.00
2023-02-15T21:45:42.917Z,31.33
2023-02-15T21:47:44.532Z,31.67
2023-02-15T21:49:46.079Z,27.00
2023-02-15T21:51:47.901Z,32.67
2023-02-15T21:53:49.531Z,32.00
2023-02-15T21:55:52.575Z,27.67
2023-02-15T21:57:54.166Z,30.33
2023-02-15T21:59:55.861Z,29.33
2023-02-15T22:01:59.024Z,29.00
2023-02-15T22:04:00.793Z,28.67
2023-02-15T22:06:02.980Z,32.33
2023-02-15T22:08:11.211Z,32.00
2023-02-15T22:10:13.461Z,36.33
2023-02-15T22:12:16.903Z,34.00
2023-02-15T22:14:35.934Z,29.33
2023-02-15T22:16:37.558Z,30.67
2023-02-15T22:18:40.933Z,28.33
2023-02-15T22:20:42.601Z,34.00
2023-02-15T22:22:44.380Z,26.00
2023-02-15T22:24:46.005Z,29.67
2023-02-15T22:26:47.684Z,28.00
2023-02-15T22:28:49.626Z,28.67
2023-02-15T22:30:52.314Z,30.00
2023-02-15T22:32:55.398Z,28.67
2023-02-15T22:34:58.504Z,36.00
2023-02-15T22:37:00.380Z,31.67
2023-02-15T22:39:02.035Z,33.67
2023-02-15T22:41:04.821Z,23.33
2023-02-15T22:43:13.613Z,32.33
2023-02-15T22:45:18.746Z,30.67
2023-02-15T22:47:22.650Z,33.00
2023-02-15T22:49:24.612Z,32.00
2023-02-15T22:51:29.698Z,33.00
2023-02-15T22:53:31.440Z,30.00
2023-02-15T22:55:37.412Z,30.33
2023-02-15T22:57:39.100Z,28.33
2023-02-15T22:59:40.766Z,33.33
2023-02-15T23:01:42.819Z,33.00
2023-02-15T23:03:44.785Z,30.00
2023-02-15T23:05:46.993Z,29.00
2023-02-15T23:07:50.921Z,36.67
2023-02-15T23:09:52.789Z,28.33
2023-02-15T23:11:54.645Z,33.33
2023-02-15T23:13:56.430Z,36.00
2023-02-15T23:16:01.036Z,31.33
2023-02-15T23:18:16.407Z,35.00
2023-02-15T23:20:18.154Z,34.33
2023-02-15T23:22:19.754Z,33.00
2023-02-15T23:24:24.368Z,34.00
2023-02-15T23:26:28.128Z,35.25
2023-02-15T23:28:31.962Z,37.00
2023-02-15T23:30:34.479Z,37.00
2023-02-15T23:32:36.184Z,26.67
2023-02-15T23:34:38.242Z,33.00
2023-02-15T23:36:39.944Z,37.00
2023-02-15T23:38:41.472Z,36.67
2023-02-15T23:40:48.577Z,33.33
2023-02-15T23:42:50.161Z,33.67
2023-02-15T23:44:51.894Z,34.33
2023-02-15T23:46:53.808Z,32.25
2023-02-15T23:48:56.566Z,26.00
2023-02-15T23:50:59.110Z,32.67
2023-02-15T23:53:00.720Z,32.33
2023-02-15T23:55:02.313Z,33.33
2023-02-15T23:57:05.453Z,35.00
2023-02-15T23:59:07.960Z,32.00
